McDonaldsville, Ohio
Current Conditions -  °F | °C
As of 8:51 PM on Wednesday 26 Nov 2014 (Local Time) from KCAK Reporting Station
Overcast Overcast  
Wind Chill: 35°   Ceiling: 3800
Heat Index: 35°   Visibility: 10mi
Dew Point: 24°   Wind: 3mph
Humidity: 64%   Direction: 330°NNW
Pressure: 30.02"   Gusts: NA
Location:  40.9014°N, 81.4333°W
Report Text: KCAK 270151Z 33003KT 10SM OVC038 02/M04 A3002 RMK AO2 SLP175 T00171044
Loading
Personal Weather Stations






























Interactive Weather Map New forecast layout! Learn more

10-Day Weather Forecast

Advertisements
Track Severe Weather on mobile